createdAt,value
2018-10-03T00:00:46.692Z,976.20
2018-10-03T00:01:46.687Z,976.18
2018-10-03T00:02:46.698Z,976.21
2018-10-03T00:03:46.682Z,976.23
2018-10-03T00:04:46.707Z,976.21
2018-10-03T00:05:46.681Z,976.24
2018-10-03T00:06:46.677Z,976.20
2018-10-03T00:07:46.670Z,976.24
2018-10-03T00:08:46.669Z,976.23
2018-10-03T00:09:46.694Z,976.28
2018-10-03T00:10:46.668Z,976.31
2018-10-03T00:11:46.659Z,976.32
2018-10-03T00:12:46.660Z,976.33
2018-10-03T00:13:46.668Z,976.34
2018-10-03T00:14:46.685Z,976.33
2018-10-03T00:15:46.648Z,976.35
2018-10-03T00:16:46.652Z,976.31
2018-10-03T00:17:46.647Z,976.41
2018-10-03T00:18:46.649Z,976.40
2018-10-03T00:19:46.665Z,976.39
2018-10-03T00:20:46.644Z,976.36
2018-10-03T00:21:46.638Z,976.35
2018-10-03T00:22:46.634Z,976.39
2018-10-03T00:23:46.625Z,976.38
2018-10-03T00:24:46.657Z,976.38
2018-10-03T00:25:46.622Z,976.37
2018-10-03T00:26:46.630Z,976.33
2018-10-03T00:27:46.625Z,976.35
2018-10-03T00:28:46.643Z,976.34
2018-10-03T00:29:46.615Z,976.42
2018-10-03T00:30:46.643Z,976.39
2018-10-03T00:31:46.606Z,976.45
2018-10-03T00:32:46.605Z,976.45
2018-10-03T00:33:46.605Z,976.47
2018-10-03T00:34:46.631Z,976.44
2018-10-03T00:35:46.602Z,976.42
2018-10-03T00:36:46.598Z,976.46
2018-10-03T00:37:46.596Z,976.48
2018-10-03T00:38:46.590Z,976.48
2018-10-03T00:39:46.611Z,976.46
2018-10-03T00:40:46.587Z,976.49
2018-10-03T00:41:46.581Z,976.49
2018-10-03T00:42:46.577Z,976.48
2018-10-03T00:43:46.582Z,976.52
2018-10-03T00:44:46.605Z,976.48
2018-10-03T00:45:46.576Z,976.47
2018-10-03T00:46:46.574Z,976.44
2018-10-03T00:47:46.566Z,976.39
2018-10-03T00:48:46.590Z,976.42
2018-10-03T00:49:46.561Z,976.41
2018-10-03T00:50:46.563Z,976.39
2018-10-03T00:51:46.560Z,976.38
2018-10-03T00:52:46.557Z,976.42
2018-10-03T00:53:46.581Z,976.42
2018-10-03T00:54:46.548Z,976.41
2018-10-03T00:55:46.546Z,976.46
2018-10-03T00:56:46.545Z,976.43
2018-10-03T00:57:46.546Z,976.46
2018-10-03T00:58:46.567Z,976.43
2018-10-03T00:59:46.541Z,976.46
2018-10-03T01:00:46.537Z,976.40
2018-10-03T01:01:46.533Z,976.39
2018-10-03T01:02:46.534Z,976.39
2018-10-03T01:03:46.551Z,976.43
2018-10-03T01:04:46.527Z,976.38
2018-10-03T01:05:46.522Z,976.37
2018-10-03T01:06:46.518Z,976.34
2018-10-03T01:07:46.514Z,976.37
2018-10-03T01:08:46.541Z,976.37
2018-10-03T01:09:46.514Z,976.37
2018-10-03T01:10:46.537Z,976.39
2018-10-03T01:11:46.506Z,976.41
2018-10-03T01:12:46.502Z,976.42
2018-10-03T01:13:46.504Z,976.43
2018-10-03T01:14:46.580Z,976.42
2018-10-03T01:15:46.497Z,976.39
2018-10-03T01:16:46.497Z,976.37
2018-10-03T01:17:46.493Z,976.47
2018-10-03T01:18:46.493Z,976.45
2018-10-03T01:19:46.514Z,976.46
2018-10-03T01:20:46.469Z,976.48
2018-10-03T01:21:46.474Z,976.48
2018-10-03T01:22:46.470Z,976.53
2018-10-03T01:23:46.459Z,976.50
2018-10-03T01:24:46.487Z,976.47
2018-10-03T01:25:46.460Z,976.46
2018-10-03T01:26:46.489Z,976.52
2018-10-03T01:27:46.451Z,976.50
2018-10-03T01:28:46.454Z,976.49
2018-10-03T01:29:46.479Z,976.53
2018-10-03T01:30:46.443Z,976.50
2018-10-03T01:31:46.451Z,976.48
2018-10-03T01:32:46.479Z,976.45
2018-10-03T01:33:46.438Z,976.39
2018-10-03T01:34:46.470Z,976.44
2018-10-03T01:35:46.433Z,976.53
2018-10-03T01:36:46.428Z,976.59
2018-10-03T01:37:46.427Z,976.51
2018-10-03T01:38:46.431Z,976.49
2018-10-03T01:39:46.461Z,976.55
2018-10-03T01:40:46.422Z,976.54
2018-10-03T01:41:46.422Z,976.55
2018-10-03T01:42:46.416Z,976.55
2018-10-03T01:43:46.441Z,976.59
2018-10-03T01:44:46.408Z,976.55
2018-10-03T01:45:46.407Z,976.51
2018-10-03T01:46:46.446Z,976.57
2018-10-03T01:47:46.405Z,976.57
2018-10-03T01:48:46.429Z,976.47
2018-10-03T01:49:46.400Z,976.54
2018-10-03T01:50:46.394Z,976.49
2018-10-03T01:51:46.439Z,976.48
2018-10-03T01:52:46.389Z,976.50
2018-10-03T01:53:46.427Z,976.54
2018-10-03T01:54:52.925Z,976.58
2018-10-03T01:55:46.381Z,976.59
2018-10-03T01:56:46.382Z,976.54
2018-10-03T01:57:46.380Z,976.51
2018-10-03T01:58:46.410Z,976.51
2018-10-03T01:59:46.370Z,976.46
2018-10-03T02:00:46.376Z,976.52
2018-10-03T02:01:46.405Z,976.48
2018-10-03T02:02:46.364Z,976.55
2018-10-03T02:03:46.393Z,976.55
2018-10-03T02:04:46.361Z,976.53
2018-10-03T02:05:46.358Z,976.49
2018-10-03T02:06:46.356Z,976.55
2018-10-03T02:07:46.391Z,976.53
2018-10-03T02:08:46.351Z,976.49
2018-10-03T02:09:46.385Z,976.45
2018-10-03T02:10:46.345Z,976.45
2018-10-03T02:11:46.347Z,976.47
2018-10-03T02:12:46.342Z,976.46
2018-10-03T02:13:46.343Z,976.45
2018-10-03T02:14:46.385Z,976.46
2018-10-03T02:15:46.452Z,976.45
2018-10-03T02:16:46.330Z,976.44
2018-10-03T02:17:46.332Z,976.47
2018-10-03T02:18:46.364Z,976.52
2018-10-03T02:19:46.321Z,976.56
2018-10-03T02:20:46.323Z,976.53
2018-10-03T02:21:46.318Z,976.58
2018-10-03T02:22:46.317Z,976.56
2018-10-03T02:23:46.349Z,976.53
2018-10-03T02:24:46.354Z,976.55
2018-10-03T02:25:46.310Z,976.59
2018-10-03T02:26:46.312Z,976.57
2018-10-03T02:27:46.302Z,976.62
2018-10-03T02:28:46.347Z,976.67
2018-10-03T02:29:46.302Z,976.66
2018-10-03T02:30:46.301Z,976.68
2018-10-03T02:31:46.296Z,976.70
2018-10-03T02:32:46.298Z,976.71
2018-10-03T02:33:46.335Z,976.76
2018-10-03T02:34:46.289Z,976.68
2018-10-03T02:35:46.289Z,976.70
2018-10-03T02:36:46.311Z,976.67
2018-10-03T02:37:46.284Z,976.64
2018-10-03T02:38:46.289Z,976.63
2018-10-03T02:39:46.274Z,976.67
2018-10-03T02:40:46.305Z,976.69
2018-10-03T02:41:46.286Z,976.66
2018-10-03T02:42:46.273Z,976.68
2018-10-03T02:43:46.271Z,976.66
2018-10-03T02:44:46.265Z,976.67
2018-10-03T02:45:46.309Z,976.72
2018-10-03T02:46:46.273Z,976.72
2018-10-03T02:47:46.259Z,976.67
2018-10-03T02:48:46.305Z,976.72
2018-10-03T02:49:46.263Z,976.67
2018-10-03T02:50:46.251Z,976.68
2018-10-03T02:51:46.255Z,976.69
2018-10-03T02:52:46.250Z,976.70
2018-10-03T02:53:46.276Z,976.78
2018-10-03T02:54:46.280Z,976.78
2018-10-03T02:55:46.253Z,976.81
2018-10-03T02:56:46.243Z,976.81
2018-10-03T02:57:46.241Z,976.76
2018-10-03T02:58:46.241Z,976.74
2018-10-03T02:59:46.307Z,976.78
2018-10-03T03:00:46.228Z,976.84
2018-10-03T03:01:46.265Z,976.85
2018-10-03T03:02:46.225Z,976.85
2018-10-03T03:03:46.232Z,976.86
2018-10-03T03:04:46.266Z,976.91
2018-10-03T03:05:46.219Z,976.88
2018-10-03T03:06:46.226Z,976.80
2018-10-03T03:07:46.219Z,976.79
2018-10-03T03:08:46.252Z,976.77
2018-10-03T03:09:46.211Z,976.81
2018-10-03T03:10:46.242Z,976.83
2018-10-03T03:11:46.215Z,976.83
2018-10-03T03:12:46.201Z,976.81
2018-10-03T03:13:46.235Z,976.82
2018-10-03T03:14:46.204Z,976.84
2018-10-03T03:15:46.201Z,976.82
2018-10-03T03:16:46.193Z,976.84
2018-10-03T03:17:46.211Z,976.82
2018-10-03T03:18:46.233Z,976.83
2018-10-03T03:19:46.189Z,976.87
2018-10-03T03:20:46.184Z,976.90
2018-10-03T03:21:46.190Z,976.88
2018-10-03T03:22:46.183Z,976.89
2018-10-03T03:23:46.221Z,976.87
2018-10-03T03:24:46.201Z,976.89
2018-10-03T03:25:46.218Z,976.89
2018-10-03T03:26:46.182Z,976.93
2018-10-03T03:27:46.175Z,976.92
2018-10-03T03:28:46.201Z,976.88
2018-10-03T03:29:46.171Z,976.88
2018-10-03T03:30:46.166Z,976.90
2018-10-03T03:31:46.166Z,976.90
2018-10-03T03:32:46.167Z,976.91
2018-10-03T03:33:46.195Z,976.92
2018-10-03T03:34:46.162Z,976.92
2018-10-03T03:35:46.159Z,976.99
2018-10-03T03:36:46.150Z,976.97
2018-10-03T03:37:46.155Z,976.91
2018-10-03T03:38:46.190Z,976.98
2018-10-03T03:39:46.143Z,977.01
2018-10-03T03:40:46.140Z,977.02
2018-10-03T03:41:46.141Z,977.06
2018-10-03T03:42:46.149Z,977.05
2018-10-03T03:43:46.168Z,977.11
2018-10-03T03:44:46.137Z,977.13
2018-10-03T03:45:46.148Z,977.08
2018-10-03T03:46:46.138Z,977.11
2018-10-03T03:47:46.166Z,977.14
2018-10-03T03:48:46.132Z,977.19
2018-10-03T03:49:46.123Z,977.20
2018-10-03T03:50:46.127Z,977.16
2018-10-03T03:51:46.168Z,977.25
2018-10-03T03:52:46.157Z,977.18
2018-10-03T03:53:46.123Z,977.18
2018-10-03T03:54:46.115Z,977.14
2018-10-03T03:55:46.121Z,977.25
2018-10-03T03:56:46.112Z,977.24
2018-10-03T03:57:46.154Z,977.17
2018-10-03T03:58:46.098Z,977.21
2018-10-03T03:59:46.100Z,977.24
2018-10-03T04:00:46.100Z,977.23
2018-10-03T04:01:46.093Z,977.25
2018-10-03T04:02:46.127Z,977.34
2018-10-03T04:03:46.124Z,977.36
2018-10-03T04:04:46.088Z,977.40
2018-10-03T04:05:46.092Z,977.42
2018-10-03T04:06:46.084Z,977.50
2018-10-03T04:07:46.117Z,977.56
2018-10-03T04:08:46.089Z,977.59
2018-10-03T04:09:46.075Z,977.56
2018-10-03T04:10:46.085Z,977.59
2018-10-03T04:11:46.070Z,977.54
2018-10-03T04:12:46.107Z,977.59
2018-10-03T04:13:46.115Z,977.52
2018-10-03T04:14:46.066Z,977.53
2018-10-03T04:15:46.065Z,977.60
2018-10-03T04:16:46.060Z,977.58
2018-10-03T04:17:46.058Z,977.53
2018-10-03T04:18:46.088Z,977.58
2018-10-03T04:19:46.061Z,977.48
2018-10-03T04:20:46.049Z,977.52
2018-10-03T04:21:46.052Z,977.57
2018-10-03T04:22:46.056Z,977.54
2018-10-03T04:23:46.083Z,977.51
2018-10-03T04:24:46.044Z,977.52
2018-10-03T04:25:46.039Z,977.54
2018-10-03T04:26:46.042Z,977.59
2018-10-03T04:27:46.037Z,977.54
2018-10-03T04:28:46.077Z,977.61
2018-10-03T04:29:46.032Z,977.60
2018-10-03T04:30:46.033Z,977.66
2018-10-03T04:31:46.029Z,977.59
2018-10-03T04:32:46.022Z,977.62
2018-10-03T04:33:46.060Z,977.54
2018-10-03T04:34:46.024Z,977.55
2018-10-03T04:35:46.087Z,977.55
2018-10-03T04:36:46.013Z,977.56
2018-10-03T04:37:46.067Z,977.51
2018-10-03T04:38:46.015Z,977.49
2018-10-03T04:39:46.007Z,977.56
2018-10-03T04:40:46.005Z,977.54
2018-10-03T04:41:46.001Z,977.50
2018-10-03T04:42:46.037Z,977.55
2018-10-03T04:43:46.041Z,977.59
2018-10-03T04:44:45.997Z,977.64
2018-10-03T04:45:45.992Z,977.63
2018-10-03T04:46:45.999Z,977.70
2018-10-03T04:47:46.028Z,977.65
2018-10-03T04:48:45.992Z,977.70
2018-10-03T04:49:46.016Z,977.72
2018-10-03T04:50:45.975Z,977.71
2018-10-03T04:51:45.973Z,977.71
2018-10-03T04:52:45.988Z,977.73
2018-10-03T04:53:46.008Z,977.73
2018-10-03T04:54:45.973Z,977.73
2018-10-03T04:55:45.997Z,977.79
2018-10-03T04:56:46.010Z,977.80
2018-10-03T04:57:45.967Z,977.77
2018-10-03T04:58:45.961Z,977.89
2018-10-03T04:59:45.995Z,977.92
2018-10-03T05:00:45.962Z,977.91
2018-10-03T05:01:45.956Z,977.91
2018-10-03T05:02:45.949Z,977.90
2018-10-03T05:03:45.985Z,977.92
2018-10-03T05:04:45.948Z,977.88
2018-10-03T05:05:45.937Z,977.89
2018-10-03T05:06:45.943Z,977.88
2018-10-03T05:07:45.939Z,977.95
2018-10-03T05:08:45.963Z,977.95
2018-10-03T05:09:45.975Z,977.97
2018-10-03T05:10:45.932Z,978.06
2018-10-03T05:11:45.928Z,978.07
2018-10-03T05:12:45.955Z,978.04
2018-10-03T05:13:45.962Z,978.09
2018-10-03T05:14:45.919Z,978.04
2018-10-03T05:15:45.914Z,978.06
2018-10-03T05:16:45.917Z,978.02
2018-10-03T05:17:45.915Z,977.99
2018-10-03T05:18:45.947Z,978.00
2018-10-03T05:19:45.944Z,978.01
2018-10-03T05:20:45.903Z,978.00
2018-10-03T05:21:45.897Z,977.98
2018-10-03T05:22:45.896Z,978.04
2018-10-03T05:23:45.922Z,978.07
2018-10-03T05:24:45.905Z,978.12
2018-10-03T05:25:45.935Z,978.13
2018-10-03T05:26:45.911Z,978.15
2018-10-03T05:27:46.006Z,978.19
2018-10-03T05:28:45.913Z,978.24
2018-10-03T05:29:45.897Z,978.22
2018-10-03T05:30:45.900Z,978.26
2018-10-03T05:31:45.898Z,978.27
2018-10-03T05:32:45.883Z,978.28
2018-10-03T05:33:45.921Z,978.33
2018-10-03T05:34:45.884Z,978.35
2018-10-03T05:35:45.886Z,978.29
2018-10-03T05:36:47.524Z,978.31
2018-10-03T05:37:45.913Z,978.34
2018-10-03T05:38:45.859Z,978.32
2018-10-03T05:39:45.948Z,978.36
2018-10-03T05:40:45.851Z,978.38
2018-10-03T05:41:45.865Z,978.36
2018-10-03T05:42:45.843Z,978.35
2018-10-03T05:43:45.842Z,978.40
2018-10-03T05:44:45.875Z,978.37
2018-10-03T05:45:45.833Z,978.35
2018-10-03T05:46:45.832Z,978.35
2018-10-03T05:47:45.831Z,978.39
2018-10-03T05:48:45.883Z,978.36
2018-10-03T05:49:45.823Z,978.40
2018-10-03T05:50:45.819Z,978.43
2018-10-03T05:51:45.814Z,978.43
2018-10-03T05:52:45.816Z,978.46
2018-10-03T05:53:45.836Z,978.42
2018-10-03T05:54:45.863Z,978.37
2018-10-03T05:55:45.808Z,978.38
2018-10-03T05:56:45.801Z,978.45
2018-10-03T05:57:45.845Z,978.42
2018-10-03T05:58:45.840Z,978.42
2018-10-03T05:59:45.802Z,978.40
2018-10-03T06:00:45.798Z,978.43
2018-10-03T06:01:45.790Z,978.50
2018-10-03T06:02:45.823Z,978.39
2018-10-03T06:03:45.820Z,978.40
2018-10-03T06:04:45.785Z,978.42
2018-10-03T06:05:45.781Z,978.37
2018-10-03T06:06:45.792Z,978.39
2018-10-03T06:07:45.812Z,978.47
2018-10-03T06:08:45.787Z,978.45
2018-10-03T06:09:45.774Z,978.50
2018-10-03T06:10:45.769Z,978.49
2018-10-03T06:11:45.766Z,978.45
2018-10-03T06:12:45.799Z,978.51
2018-10-03T06:13:45.764Z,978.47
2018-10-03T06:14:45.764Z,978.56
2018-10-03T06:15:45.758Z,978.53
2018-10-03T06:16:45.756Z,978.54
2018-10-03T06:17:45.788Z,978.55
2018-10-03T06:18:45.811Z,978.64
2018-10-03T06:19:45.751Z,978.67
2018-10-03T06:20:45.742Z,978.69
2018-10-03T06:21:45.753Z,978.69
2018-10-03T06:22:45.766Z,978.63
2018-10-03T06:23:45.777Z,978.72
2018-10-03T06:24:45.744Z,978.77
2018-10-03T06:25:45.734Z,978.73
2018-10-03T06:26:45.735Z,978.71
2018-10-03T06:27:45.808Z,978.78
2018-10-03T06:28:45.728Z,978.75
2018-10-03T06:29:45.727Z,978.75
2018-10-03T06:30:45.729Z,978.76
2018-10-03T06:31:45.722Z,978.79
2018-10-03T06:32:45.752Z,978.80
2018-10-03T06:33:45.717Z,978.79
2018-10-03T06:34:45.752Z,978.78
2018-10-03T06:35:45.713Z,978.82
2018-10-03T06:36:45.749Z,978.83
2018-10-03T06:37:45.708Z,978.82
2018-10-03T06:38:45.705Z,978.81
2018-10-03T06:39:45.729Z,978.82
2018-10-03T06:40:45.734Z,978.79
2018-10-03T06:41:45.698Z,978.75
2018-10-03T06:42:45.751Z,978.75
2018-10-03T06:43:45.695Z,978.71
2018-10-03T06:44:45.697Z,978.78
2018-10-03T06:45:45.761Z,978.81
2018-10-03T06:46:45.688Z,978.77
2018-10-03T06:47:45.712Z,978.78
2018-10-03T06:48:45.720Z,978.82
2018-10-03T06:49:45.683Z,978.77
2018-10-03T06:50:45.681Z,978.77
2018-10-03T06:51:45.683Z,978.81
2018-10-03T06:52:45.705Z,978.82
2018-10-03T06:53:45.677Z,978.79
2018-10-03T06:54:45.726Z,978.84
2018-10-03T06:55:45.679Z,978.81
2018-10-03T06:56:45.668Z,978.85
2018-10-03T06:57:45.704Z,978.83
2018-10-03T06:58:45.663Z,978.93
2018-10-03T06:59:45.675Z,978.92
2018-10-03T07:00:45.675Z,978.94
2018-10-03T07:01:45.701Z,978.91
2018-10-03T07:02:45.680Z,978.93
2018-10-03T07:03:45.663Z,978.95
2018-10-03T07:04:45.649Z,978.97
2018-10-03T07:05:45.700Z,978.95
2018-10-03T07:06:45.647Z,978.98
2018-10-03T07:07:45.687Z,979.05
2018-10-03T07:08:45.641Z,979.10
2018-10-03T07:09:45.641Z,979.08
2018-10-03T07:10:45.642Z,979.07
2018-10-03T07:11:45.636Z,979.11
2018-10-03T07:12:45.687Z,979.08
2018-10-03T07:13:45.642Z,979.08
2018-10-03T07:14:45.652Z,979.14
2018-10-03T07:15:45.637Z,979.15
2018-10-03T07:16:45.633Z,979.13
2018-10-03T07:17:45.665Z,979.08
2018-10-03T07:18:45.628Z,979.12
2018-10-03T07:19:45.663Z,979.05
2018-10-03T07:20:45.620Z,979.06
2018-10-03T07:21:45.625Z,979.13
2018-10-03T07:22:45.615Z,979.19
2018-10-03T07:23:45.655Z,979.26
2018-10-03T07:24:45.614Z,979.29
2018-10-03T07:25:45.620Z,979.25
2018-10-03T07:26:45.611Z,979.26
2018-10-03T07:27:45.615Z,979.34
2018-10-03T07:28:45.636Z,979.35
2018-10-03T07:29:45.644Z,979.33
2018-10-03T07:30:45.609Z,979.37
2018-10-03T07:31:45.602Z,979.43
2018-10-03T07:32:45.642Z,979.40
2018-10-03T07:33:45.632Z,979.48
2018-10-03T07:34:45.595Z,979.47
2018-10-03T07:35:45.635Z,979.48
2018-10-03T07:36:45.598Z,979.49
2018-10-03T07:37:45.592Z,979.49
2018-10-03T07:38:45.630Z,979.52
2018-10-03T07:39:45.595Z,979.52
2018-10-03T07:40:45.587Z,979.48
2018-10-03T07:41:45.612Z,979.40
2018-10-03T07:42:45.590Z,979.50
2018-10-03T07:43:45.620Z,979.56
2018-10-03T07:44:45.624Z,979.44
2018-10-03T07:45:45.586Z,979.40
2018-10-03T07:46:45.582Z,979.33
2018-10-03T07:47:45.585Z,979.27
2018-10-03T07:48:45.630Z,979.47
2018-10-03T07:49:45.574Z,979.41
2018-10-03T07:50:45.575Z,979.38
2018-10-03T07:51:45.580Z,979.40
2018-10-03T07:52:45.583Z,979.48
2018-10-03T07:53:45.606Z,979.51
2018-10-03T07:54:45.612Z,979.58
2018-10-03T07:55:45.575Z,979.54
2018-10-03T07:56:46.412Z,979.41
2018-10-03T07:57:45.574Z,979.55
2018-10-03T07:58:45.615Z,979.57
2018-10-03T07:59:45.580Z,979.58
2018-10-03T08:00:45.612Z,979.75
2018-10-03T08:01:45.585Z,979.65
2018-10-03T08:02:45.584Z,979.60
2018-10-03T08:03:45.613Z,979.60
2018-10-03T08:04:45.579Z,979.61
2018-10-03T08:05:45.585Z,979.62
2018-10-03T08:06:45.583Z,979.65
2018-10-03T08:07:45.589Z,979.66
2018-10-03T08:08:45.611Z,979.56
2018-10-03T08:09:45.642Z,979.62
2018-10-03T08:10:45.593Z,979.65
2018-10-03T08:11:45.588Z,979.64
2018-10-03T08:12:45.587Z,979.70
2018-10-03T08:13:45.613Z,979.63
2018-10-03T08:14:45.588Z,979.61
2018-10-03T08:15:45.619Z,979.65
2018-10-03T08:16:45.592Z,979.72
2018-10-03T08:17:45.588Z,979.70
2018-10-03T08:18:45.633Z,979.74
2018-10-03T08:19:45.592Z,979.68
2018-10-03T08:20:45.591Z,979.67
2018-10-03T08:21:45.593Z,979.67
2018-10-03T08:22:45.592Z,979.66
2018-10-03T08:23:45.625Z,979.66
2018-10-03T08:24:45.620Z,979.69
2018-10-03T08:25:45.596Z,979.72
2018-10-03T08:26:45.597Z,979.71
2018-10-03T08:27:45.598Z,979.81
2018-10-03T08:28:45.596Z,979.82
2018-10-03T08:29:45.636Z,979.84
2018-10-03T08:30:45.616Z,979.71
2018-10-03T08:31:45.606Z,979.77
2018-10-03T08:32:45.788Z,979.72
2018-10-03T08:33:45.599Z,979.74
2018-10-03T08:34:45.627Z,979.90
2018-10-03T08:35:45.631Z,979.84
2018-10-03T08:36:45.604Z,979.87
2018-10-03T08:37:45.604Z,979.79
2018-10-03T08:38:45.637Z,979.92
2018-10-03T08:39:45.606Z,979.94
2018-10-03T08:40:45.646Z,979.98
2018-10-03T08:41:45.612Z,980.01
2018-10-03T08:42:45.650Z,979.95
2018-10-03T08:43:45.615Z,979.98
2018-10-03T08:44:45.614Z,980.05
2018-10-03T08:45:45.613Z,980.03
2018-10-03T08:46:45.619Z,980.05
2018-10-03T08:47:45.641Z,980.09
2018-10-03T08:48:45.649Z,980.09
2018-10-03T08:49:45.611Z,980.06
2018-10-03T08:50:45.611Z,980.08
2018-10-03T08:51:45.688Z,980.09
2018-10-03T08:52:45.615Z,980.07
2018-10-03T08:53:45.616Z,980.11
2018-10-03T08:54:45.630Z,980.09
2018-10-03T08:55:45.612Z,980.11
2018-10-03T08:56:45.645Z,980.11
2018-10-03T08:57:45.651Z,980.09
2018-10-03T08:58:45.621Z,980.09
2018-10-03T08:59:45.623Z,980.16
2018-10-03T09:00:45.622Z,980.06
2018-10-03T09:01:45.657Z,980.13
2018-10-03T09:02:45.622Z,980.13
2018-10-03T09:03:45.616Z,980.18
2018-10-03T09:04:45.626Z,980.14
2018-10-03T09:05:45.632Z,980.25
2018-10-03T09:06:45.667Z,980.22
2018-10-03T09:07:45.660Z,980.28
2018-10-03T09:08:45.624Z,980.27
2018-10-03T09:09:45.636Z,980.25
2018-10-03T09:10:45.629Z,980.14
2018-10-03T09:11:45.757Z,980.22
2018-10-03T09:12:45.649Z,980.16
2018-10-03T09:13:45.689Z,980.19
2018-10-03T09:14:45.629Z,980.32
2018-10-03T09:15:45.622Z,980.38
2018-10-03T09:16:45.671Z,980.39
2018-10-03T09:17:45.635Z,980.32
2018-10-03T09:18:45.638Z,980.33
2018-10-03T09:19:45.636Z,980.38
2018-10-03T09:20:45.643Z,980.45
2018-10-03T09:21:45.712Z,980.63
2018-10-03T09:22:45.677Z,980.67
2018-10-03T09:23:45.646Z,980.51
2018-10-03T09:24:45.650Z,980.40
2018-10-03T09:25:45.643Z,980.53
2018-10-03T09:26:45.684Z,980.60
2018-10-03T09:27:45.653Z,980.51
2018-10-03T09:28:45.649Z,980.55
2018-10-03T09:29:45.665Z,980.45
2018-10-03T09:30:45.674Z,980.49
2018-10-03T09:31:45.707Z,980.58
2018-10-03T09:32:45.682Z,980.49
2018-10-03T09:33:45.671Z,980.75
2018-10-03T09:34:45.674Z,980.59
2018-10-03T09:35:45.670Z,980.82
2018-10-03T09:36:45.715Z,980.65
2018-10-03T09:37:45.687Z,980.58
2018-10-03T09:38:45.686Z,980.87
2018-10-03T09:39:45.696Z,980.78
2018-10-03T09:40:45.707Z,980.71
2018-10-03T09:41:45.724Z,980.71
2018-10-03T09:42:45.745Z,980.91
2018-10-03T09:43:45.749Z,980.68
2018-10-03T09:44:45.716Z,980.78
2018-10-03T09:45:45.717Z,980.93
2018-10-03T09:46:45.727Z,980.66
2018-10-03T09:47:45.789Z,980.71
2018-10-03T09:48:45.763Z,980.77
2018-10-03T09:49:45.743Z,980.62
2018-10-03T09:50:45.748Z,980.51
2018-10-03T09:51:45.750Z,980.57
2018-10-03T09:52:45.780Z,980.67
2018-10-03T09:53:45.760Z,980.69
2018-10-03T09:54:45.770Z,980.91
2018-10-03T09:55:45.779Z,980.94
2018-10-03T09:56:45.774Z,981.10
2018-10-03T09:57:45.810Z,980.85
2018-10-03T09:58:45.792Z,980.75
2018-10-03T09:59:45.788Z,980.90
2018-10-03T10:00:45.817Z,980.74
2018-10-03T10:01:45.826Z,980.84
2018-10-03T10:02:45.852Z,980.79
2018-10-03T10:03:45.855Z,980.82
2018-10-03T10:04:45.812Z,980.95
2018-10-03T10:05:45.815Z,980.91
2018-10-03T10:06:45.809Z,980.93
2018-10-03T10:07:45.853Z,980.90
2018-10-03T10:08:45.810Z,980.93
2018-10-03T10:09:45.813Z,980.89
2018-10-03T10:10:45.812Z,980.94
2018-10-03T10:11:45.913Z,980.99
2018-10-03T10:12:45.879Z,981.18
2018-10-03T10:13:45.835Z,981.08
2018-10-03T10:14:45.856Z,981.15
2018-10-03T10:15:45.877Z,981.14
2018-10-03T10:16:45.844Z,981.14
2018-10-03T10:17:45.910Z,981.39
2018-10-03T10:18:45.842Z,981.47
2018-10-03T10:19:45.849Z,981.48
2018-10-03T10:20:45.908Z,981.54
2018-10-03T10:21:45.880Z,981.40
2018-10-03T10:22:45.884Z,981.45
2018-10-03T10:23:45.871Z,981.57
2018-10-03T10:24:45.860Z,981.49
2018-10-03T10:25:45.879Z,981.53
2018-10-03T10:26:45.874Z,981.38
2018-10-03T10:27:45.906Z,981.26
2018-10-03T10:28:45.888Z,981.23
2018-10-03T10:29:45.884Z,981.17
2018-10-03T10:30:45.922Z,981.22
2018-10-03T10:31:45.968Z,981.28
2018-10-03T10:32:45.982Z,981.25
2018-10-03T10:33:45.929Z,981.35
2018-10-03T10:34:45.925Z,981.31
2018-10-03T10:35:45.968Z,981.36
2018-10-03T10:36:45.931Z,981.50
2018-10-03T10:37:46.025Z,981.36
2018-10-03T10:38:45.955Z,981.31
2018-10-03T10:39:45.944Z,981.34
2018-10-03T10:40:46.138Z,981.38
2018-10-03T10:41:45.968Z,981.39
2018-10-03T10:42:45.987Z,981.40
2018-10-03T10:43:45.985Z,981.37
2018-10-03T10:44:45.973Z,981.46
2018-10-03T10:45:46.007Z,981.69
2018-10-03T10:46:46.037Z,981.36
2018-10-03T10:47:46.017Z,981.29
2018-10-03T10:48:45.991Z,981.49
2018-10-03T10:49:46.015Z,981.55
2018-10-03T10:50:45.990Z,981.69
2018-10-03T10:51:46.103Z,981.82
2018-10-03T10:52:46.029Z,981.49
2018-10-03T10:53:46.040Z,981.77
2018-10-03T10:54:46.016Z,981.51
2018-10-03T10:55:46.007Z,981.48
2018-10-03T10:56:46.043Z,981.41
2018-10-03T10:57:46.087Z,981.37
2018-10-03T10:58:46.087Z,981.47
2018-10-03T10:59:46.110Z,981.38
2018-10-03T11:00:46.077Z,981.44
2018-10-03T11:01:46.078Z,981.39
2018-10-03T11:02:46.102Z,981.46
2018-10-03T11:03:46.089Z,981.49
2018-10-03T11:04:46.069Z,981.47
2018-10-03T11:05:46.078Z,981.54
2018-10-03T11:06:46.082Z,981.46
2018-10-03T11:07:46.090Z,981.89
2018-10-03T11:08:46.063Z,981.87
2018-10-03T11:09:46.072Z,981.88
2018-10-03T11:10:46.068Z,981.69
2018-10-03T11:11:46.071Z,981.49
2018-10-03T11:12:46.128Z,981.49
2018-10-03T11:13:46.116Z,981.71
2018-10-03T11:14:46.105Z,981.56
2018-10-03T11:15:46.104Z,981.40
2018-10-03T11:16:46.150Z,981.39
2018-10-03T11:17:46.175Z,981.39
2018-10-03T11:18:46.137Z,981.39
2018-10-03T11:19:46.153Z,981.41
2018-10-03T11:20:46.120Z,981.46
2018-10-03T11:21:46.151Z,981.47
2018-10-03T11:22:46.171Z,981.48
2018-10-03T11:23:46.287Z,981.48
2018-10-03T11:24:46.273Z,981.55
2018-10-03T11:25:46.148Z,981.51
2018-10-03T11:26:46.197Z,981.84
2018-10-03T11:27:46.141Z,981.73
2018-10-03T11:28:46.178Z,981.90
2018-10-03T11:29:46.194Z,981.80
2018-10-03T11:30:46.155Z,981.77
2018-10-03T11:31:46.205Z,981.86
2018-10-03T11:32:46.165Z,981.95
2018-10-03T11:33:46.174Z,981.97
2018-10-03T11:34:46.187Z,981.92
2018-10-03T11:35:46.240Z,981.80
2018-10-03T11:36:46.259Z,981.82
2018-10-03T11:37:46.271Z,981.85
2018-10-03T11:38:46.216Z,981.77
2018-10-03T11:39:46.232Z,981.97
2018-10-03T11:40:46.240Z,981.97
2018-10-03T11:41:46.301Z,981.87
2018-10-03T11:42:46.264Z,981.71
2018-10-03T11:43:46.312Z,981.64
2018-10-03T11:44:46.285Z,981.66
2018-10-03T11:45:46.292Z,981.81
2018-10-03T11:46:46.340Z,981.55
2018-10-03T11:47:46.354Z,981.58
2018-10-03T11:48:46.306Z,981.67
2018-10-03T11:49:46.310Z,981.62
2018-10-03T11:50:46.379Z,981.73
2018-10-03T11:51:46.398Z,981.70
2018-10-03T11:52:46.351Z,981.79
2018-10-03T11:53:46.392Z,981.90
2018-10-03T11:54:46.370Z,982.14
2018-10-03T11:55:46.345Z,981.81
2018-10-03T11:56:46.387Z,981.86
2018-10-03T11:57:46.368Z,981.93
2018-10-03T11:58:46.371Z,981.84
2018-10-03T11:59:46.397Z,981.81
2018-10-03T12:00:46.394Z,981.82
2018-10-03T12:01:46.423Z,981.75
2018-10-03T12:02:46.492Z,981.78
2018-10-03T12:03:46.421Z,981.77
2018-10-03T12:04:46.414Z,981.85
2018-10-03T12:05:46.405Z,981.92
2018-10-03T12:06:46.440Z,981.93
2018-10-03T12:07:46.409Z,981.87
2018-10-03T12:08:46.441Z,981.88
2018-10-03T12:09:46.426Z,981.96
2018-10-03T12:10:46.443Z,981.88
2018-10-03T12:11:46.469Z,981.85
2018-10-03T12:12:46.418Z,981.87
2018-10-03T12:13:46.453Z,981.83
2018-10-03T12:14:46.438Z,981.90
2018-10-03T12:15:46.446Z,981.89
2018-10-03T12:16:46.471Z,981.94
2018-10-03T12:17:46.432Z,982.02
2018-10-03T12:18:46.476Z,982.14
2018-10-03T12:19:46.455Z,982.11
2018-10-03T12:20:46.462Z,982.13
2018-10-03T12:21:46.502Z,982.06
2018-10-03T12:22:46.454Z,982.05
2018-10-03T12:23:46.457Z,982.36
2018-10-03T12:24:46.439Z,982.45
2018-10-03T12:25:46.468Z,982.14
2018-10-03T12:26:46.532Z,982.22
2018-10-03T12:27:46.484Z,982.41
2018-10-03T12:28:46.486Z,982.13